Terminal Aerodrome Forecast
Issued by NWS Jackson, KY

Home | Current Version | Previous Version | Text Only | Print | Product List | Glossary On
Versions: 1 2 3 4 5 6 7 8 9 10 11 12 13 14 15 16 17 18 19 20 21
000
FTUS43 KJKL 300249 AAB
TAFLOZ
TAF AMD
KLOZ 300249Z 3003/3024 VRB03KT P6SM VCTS BKN035CB
     FM300900 34004KT 2SM BR VCSH OVC025
     FM301500 01006KT P6SM SCT030=

USA.gov is the U.S. government's official web portal to all federal, state and local government web resources and services.